Roald Amundsen — DARG — position and weather

sailwx.info

Track history (hours):
 
Tides and Currents Weather Stations Pressure Air Temp Water Temp Dewpoint Dewpoint Depression Visibility Wind Speed Wind Dir Waves Ship Positions

Roald Amundsen (Germany)

Built as a deep sea lugger in 1952. Converted and rigged as a traditional brig in 1992.

Ship's website: http://www.sailtraining.de/

Last reported at 2018-Aug-14 07:00 UTC. Time now 2018-Aug-14 07:05 UTC.
Position N 54°23' E 012°22'.

Length 50 m; beam 7.4 m; draft 4.5 m.

Type: Sailing vessel. MMSI: 211215170.

Date/timePositionNaut miles runAvg speedWind from/ knotsBaromVisibWave heightAir tempDewpointWater temp
2018-Aug-14 07:00N 54°23' E 012°22'1 0.9
2018-Aug-14 06:24N 54°22' E 012°22'0 0.0
2018-Aug-14 05:57N 54°22' E 012°22'0 0.0
2018-Aug-14 05:25N 54°22' E 012°22'0 0.0
2018-Aug-14 04:58N 54°22' E 012°22'0 0.0
2018-Aug-14 04:25N 54°22' E 012°22'0 0.0
2018-Aug-14 03:58N 54°22' E 012°22'0 0.0
2018-Aug-14 03:28N 54°22' E 012°22'0 0.0
2018-Aug-14 02:58N 54°22' E 012°22'0 0.0
2018-Aug-14 00:43N 54°22' E 012°22'0 0.0
2018-Aug-14 00:22N 54°22' E 012°22'0 0.0
2018-Aug-13 21:31N 54°22' E 012°22'0 0.0
2018-Aug-13 21:19N 54°22' E 012°22'0 0.0
2018-Aug-13 20:58N 54°22' E 012°22'0 0.0
2018-Aug-13 20:28N 54°22' E 012°22'0 0.0
2018-Aug-13 19:13N 54°22' E 012°22'0 0.6
2018-Aug-13 19:00N 54°22' E 012°22'5 6.3
2018-Aug-13 18:15N 54°20' E 012°15'2 7.5
2018-Aug-13 18:00N 54°19' E 012°13'4 7.2
2018-Aug-13 17:30N 54°17' E 012°08'4 7.0
2018-Aug-13 16:58N 54°13' E 012°05'3 6.2
2018-Aug-13 16:30N 54°10' E 012°06'2 4.8
2018-Aug-13 16:00N 54°08' E 012°06'2 3.8
2018-Aug-13 15:29N 54°06' E 012°06'0 0.0
2018-Aug-13 14:50N 54°06' E 012°06'2 0.1
2018-Aug-12 13:14N 54°08' E 012°06'1 3.2
2018-Aug-12 12:57N 54°08' E 012°06'2 3.8
2018-Aug-12 12:28N 54°10' E 012°06'2 4.7
2018-Aug-12 11:59N 54°12' E 012°05'2 4.1
2018-Aug-12 11:30N 54°14' E 012°05'2 2.7
2018-Aug-12 10:45N 54°16' E 012°04'2 3.5
2018-Aug-12 10:14N 54°15' E 012°05'1 3.1
2018-Aug-12 10:00N 54°14' E 012°05'2 3.0
2018-Aug-12 09:29N 54°12' E 012°05'2 3.5
2018-Aug-12 09:00N 54°11' E 012°06'2 4.5
2018-Aug-12 08:30N 54°09' E 012°06'2 4.7
2018-Aug-12 08:00N 54°06' E 012°06'0 0.7
2018-Aug-12 07:30N 54°06' E 012°06'0 0.0
2018-Aug-12 03:48N 54°06' E 012°06'0 0.0
2018-Aug-12 03:30N 54°06' E 012°06'0 0.0
2018-Aug-12 03:00N 54°06' E 012°06'0 0.0
2018-Aug-12 02:30N 54°06' E 012°06'0 0.0
2018-Aug-12 02:00N 54°06' E 012°06'0 0.0
2018-Aug-12 01:30N 54°06' E 012°06'0 0.0
2018-Aug-12 01:00N 54°06' E 012°06'0 0.0
2018-Aug-12 00:30N 54°06' E 012°06'0 0.0
2018-Aug-11 21:24N 54°06' E 012°06'0 0.0
2018-Aug-11 21:00N 54°06' E 012°06'0 0.0
2018-Aug-11 19:06N 54°06' E 012°06'0 0.0
2018-Aug-11 18:39N 54°06' E 012°06'0 0.0
2018-Aug-11 18:12N 54°06' E 012°06'0 0.0
2018-Aug-11 18:00N 54°06' E 012°06'1 0.2
2018-Aug-11 14:00N 54°07' E 012°06'4 3.7
2018-Aug-11 12:58N 54°11' E 012°06'3 5.9
2018-Aug-11 12:30N 54°13' E 012°04'0 0.5
2018-Aug-11 11:59N 54°13' E 012°04'2 3.4
2018-Aug-11 11:30N 54°15' E 012°03'2 4.0
2018-Aug-11 11:00N 54°16' E 012°00'1 2.1
2018-Aug-11 10:30N 54°15' E 012°01'2 2.9
2018-Aug-11 09:59N 54°14' E 012°03'2 3.0
2018-Aug-11 09:28N 54°13' E 012°05'2 4.3
2018-Aug-11 09:00N 54°11' E 012°05'2 4.7
2018-Aug-11 08:30N 54°09' E 012°06'3 5.0
2018-Aug-11 08:00N 54°06' E 012°06'1 1.1
2018-Aug-11 07:29N 54°06' E 012°06'0 0.0
2018-Aug-11 06:14N 54°06' E 012°06'0 0.0
2018-Aug-11 05:59N 54°06' E 012°06'0 0.0
2018-Aug-10 23:44N 54°06' E 012°06'0 0.0
2018-Aug-10 23:26N 54°06' E 012°06'0 0.0
2018-Aug-10 22:50N 54°06' E 012°06'0 0.0
2018-Aug-10 22:26N 54°06' E 012°06'0 0.0
2018-Aug-10 16:13N 54°06' E 012°06'0 0.7
2018-Aug-10 15:59N 54°06' E 012°07'2 3.3
2018-Aug-10 15:29N 54°07' E 012°06'2 4.3
2018-Aug-10 15:00N 54°09' E 012°06'2 4.7
2018-Aug-10 14:30N 54°12' E 012°05'2 4.5
2018-Aug-10 14:00N 54°14' E 012°05'1 1.7
2018-Aug-10 13:15N 54°15' E 012°04'1 2.1
2018-Aug-10 12:59N 54°15' E 012°04'2 3.3
2018-Aug-10 12:28N 54°13' E 012°05'3 5.7
2018-Aug-10 12:00N 54°10' E 012°06'2 4.4
2018-Aug-10 11:30N 54°08' E 012°06'2 4.1
2018-Aug-10 10:59N 54°06' E 012°06'0 0.1
2018-Aug-10 08:59N 54°06' E 012°06'0 0.0
2018-Aug-10 08:29N 54°06' E 012°06'0 0.0
2018-Aug-10 05:05N 54°06' E 012°06'0 0.0
2018-Aug-10 04:35N 54°06' E 012°06'0 0.0
2018-Aug-10 04:20N 54°06' E 012°06'0 0.0
2018-Aug-10 03:59N 54°06' E 012°06'0 0.0
2018-Aug-10 02:29N 54°06' E 012°06'0 0.0
2018-Aug-10 00:59N 54°06' E 012°06'0 0.0
2018-Aug-10 00:29N 54°06' E 012°06'0 0.0
2018-Aug-09 23:59N 54°06' E 012°06'0 0.0
2018-Aug-09 20:14N 54°06' E 012°06'0 0.0
2018-Aug-09 19:59N 54°06' E 012°06'0 0.0
2018-Aug-09 17:14N 54°06' E 012°06'0 0.0
2018-Aug-09 16:59N 54°06' E 012°06'0 0.0
2018-Aug-09 11:59N 54°06' E 012°06'0 0.0
2018-Aug-09 11:29N 54°06' E 012°06'0 0.0
2018-Aug-09 10:59N 54°06' E 012°06'0 0.0
2018-Aug-09 10:29N 54°06' E 012°06'0 0.0
2018-Aug-09 09:56N 54°06' E 012°06'0 0.0
2018-Aug-09 08:28N 54°06' E 012°06'0 0.0
2018-Aug-09 07:58N 54°06' E 012°06'0 0.0
2018-Aug-09 07:28N 54°06' E 012°06'0 0.0
2018-Aug-09 06:58N 54°06' E 012°06'0 0.0
2018-Aug-09 06:28N 54°06' E 012°06'0 0.0
2018-Aug-09 05:55N 54°06' E 012°06'0 0.0
2018-Aug-09 04:16N 54°06' E 012°06'0 0.0
2018-Aug-09 03:52N 54°06' E 012°06'0 0.0
2018-Aug-09 02:10N 54°06' E 012°06'0 0.0
2018-Aug-09 01:58N 54°06' E 012°06'0 0.0
2018-Aug-09 01:01N 54°06' E 012°06'0 0.0
2018-Aug-09 00:43N 54°06' E 012°06'0 0.0
2018-Aug-09 00:22N 54°06' E 012°06'0 0.0
2018-Aug-08 23:55N 54°06' E 012°06'0 0.0
2018-Aug-08 23:28N 54°06' E 012°06'0 0.0
2018-Aug-08 22:25N 54°06' E 012°06'0 0.0
2018-Aug-08 21:49N 54°06' E 012°06'0 0.0
2018-Aug-08 21:28N 54°06' E 012°06'0 0.0
2018-Aug-08 20:58N 54°06' E 012°06'0 0.0
2018-Aug-08 18:01N 54°06' E 012°06'0 0.0
2018-Aug-08 17:58N 54°06' E 012°06'0 0.0
2018-Aug-08 17:25N 54°06' E 012°06'0 0.0
2018-Aug-08 14:55N 54°06' E 012°06'0 0.0
2018-Aug-08 14:28N 54°06' E 012°06'0 0.4
2018-Aug-08 14:00N 54°06' E 012°07'2 4.5
2018-Aug-08 13:30N 54°08' E 012°06'3 6.6
2018-Aug-08 12:59N 54°11' E 012°05'3 2.6
2018-Aug-08 11:44N 54°12' E 011°60'0 0.0
2018-Aug-08 11:23N 54°12' E 011°60'0 0.0
2018-Aug-08 08:41N 54°12' E 011°60'0 0.0
2018-Aug-08 08:26N 54°12' E 011°60'0 0.0
2018-Aug-08 07:50N 54°12' E 011°60'1 1.8
2018-Aug-08 07:31N 54°12' E 011°59'2 4.1
2018-Aug-08 07:00N 54°11' E 011°56'2 3.1
2018-Aug-08 06:30N 54°11' E 011°53'3 4.7
2018-Aug-08 05:55N 54°10' E 011°49'1 2.7
2018-Aug-08 05:30N 54°11' E 011°50'3 5.2
2018-Aug-08 04:55N 54°13' E 011°54'2 5.4
2018-Aug-08 04:30N 54°14' E 011°58'3 5.4
2018-Aug-08 04:00N 54°14' E 012°02'3 6.1
2018-Aug-08 03:30N 54°16' E 012°07'3 5.3
2018-Aug-08 03:00N 54°18' E 012°10'3 6.0
2018-Aug-08 02:30N 54°20' E 012°14'3 6.1
2018-Aug-08 02:00N 54°22' E 012°17'3 6.5
2018-Aug-08 01:30N 54°24' E 012°21'3 6.1
2018-Aug-08 01:00N 54°27' E 012°25'3 5.9
2018-Aug-08 00:31N 54°29' E 012°28'3 6.0
2018-Aug-08 00:00N 54°30' E 012°32'3 5.9
2018-Aug-07 23:30N 54°31' E 012°37'3 6.0
2018-Aug-07 23:01N 54°32' E 012°42'3 5.8
2018-Aug-07 22:30N 54°33' E 012°47'3 5.6
2018-Aug-07 22:00N 54°34' E 012°51'2 4.8
2018-Aug-07 21:30N 54°35' E 012°55'2 4.5
2018-Aug-07 21:00N 54°36' E 012°58'2 4.9
2018-Aug-07 20:30N 54°38' E 013°02'2 4.6
2018-Aug-07 20:01N 54°39' E 013°06'3 5.0
2018-Aug-07 19:30N 54°40' E 013°10'3 6.2
2018-Aug-07 19:00N 54°41' E 013°15'3 6.3
2018-Aug-07 18:30N 54°42' E 013°20'3 6.0
2018-Aug-07 18:00N 54°42' E 013°25'3 5.6
2018-Aug-07 17:30N 54°41' E 013°29'3 5.9
2018-Aug-07 17:00N 54°39' E 013°33'3 5.2
2018-Aug-07 16:30N 54°37' E 013°36'3 5.6
2018-Aug-07 16:00N 54°36' E 013°40'3 5.5
2018-Aug-07 15:30N 54°34' E 013°43'2 4.3
2018-Aug-07 15:00N 54°31' E 013°44'1 1.4
2018-Aug-07 14:30N 54°32' E 013°43'3 5.4
2018-Aug-07 14:00N 54°34' E 013°44'3 5.0
2018-Aug-07 13:30N 54°36' E 013°47'2 4.2
2018-Aug-07 13:00N 54°37' E 013°49'2 3.7
2018-Aug-07 12:30N 54°39' E 013°52'1 2.7
2018-Aug-07 12:00N 54°38' E 013°50'1 2.9
2018-Aug-07 11:30N 54°38' E 013°47'2 3.2
2018-Aug-07 11:00N 54°37' E 013°45'2 3.7
2018-Aug-07 10:30N 54°37' E 013°42'2 4.5
2018-Aug-07 10:01N 54°36' E 013°38'2 3.4
2018-Aug-07 09:30N 54°36' E 013°35'2 3.9
2018-Aug-07 09:00N 54°37' E 013°32'2 4.4
2018-Aug-07 08:29N 54°38' E 013°28'3 4.9
2018-Aug-07 07:47N 54°38' E 013°34'5 5.6
2018-Aug-07 06:49N 54°38' E 013°43'2 6.8
2018-Aug-07 06:31N 54°38' E 013°47'3 6.6
2018-Aug-07 05:59N 54°37' E 013°53'3 6.4
2018-Aug-07 05:29N 54°36' E 013°58'3 5.5
2018-Aug-07 05:00N 54°36' E 014°03'3 4.5
2018-Aug-07 04:19N 54°35' E 014°08'2 4.6
2018-Aug-07 03:58N 54°34' E 014°10'2 3.2
2018-Aug-07 03:28N 54°33' E 014°13'5 2.6
2018-Aug-07 01:31N 54°32' E 014°21'1 3.3
2018-Aug-07 01:13N 54°31' E 014°23'2 3.9
2018-Aug-07 00:47N 54°31' E 014°26'1 3.9
2018-Aug-07 00:30N 54°31' E 014°27'2 4.2
2018-Aug-07 00:00N 54°31' E 014°31'2 3.8
2018-Aug-06 23:30N 54°30' E 014°34'2 3.6
2018-Aug-06 23:00N 54°30' E 014°37'2 3.5
2018-Aug-06 22:30N 54°30' E 014°40'2 3.2
2018-Aug-06 22:00N 54°29' E 014°43'2 3.2
2018-Aug-06 21:29N 54°29' E 014°46'1 2.4
2018-Aug-06 20:56N 54°29' E 014°48'1 1.9
2018-Aug-06 20:16N 54°29' E 014°50'0 0.5
2018-Aug-06 19:42N 54°29' E 014°51'10 1.3
2018-Aug-06 12:23N 54°38' E 014°52'2 6.1
2018-Aug-06 12:00N 54°41' E 014°53'3 6.2
2018-Aug-06 11:30N 54°44' E 014°55'3 6.5
2018-Aug-06 11:00N 54°47' E 014°57'4 7.0
2018-Aug-06 10:29N 54°50' E 014°60'3 6.9
2018-Aug-06 09:59N 54°53' E 015°02'3 5.9
2018-Aug-06 09:31N 54°55' E 015°05'4 7.4
2018-Aug-06 09:01N 54°59' E 015°07'3 5.2
2018-Aug-06 08:30N 55°01' E 015°09'3 4.7
2018-Aug-06 07:56N 55°04' E 015°10'1 0.0
2018-Aug-05 15:21N 55°04' E 015°09'1 2.6
2018-Aug-05 14:56N 55°03' E 015°10'5 5.4
2018-Aug-05 13:59N 54°58' E 015°05'4 7.2
2018-Aug-05 13:29N 54°58' E 014°59'4 7.4
2018-Aug-05 13:00N 54°57' E 014°52'4 7.3
2018-Aug-05 12:30N 54°57' E 014°46'4 7.1
2018-Aug-05 12:00N 54°56' E 014°40'4 7.1
2018-Aug-05 11:30N 54°55' E 014°34'3 6.7
2018-Aug-05 11:00N 54°55' E 014°28'4 5.8
2018-Aug-05 10:24N 54°54' E 014°22'4 3.0
2018-Aug-05 09:08N 54°52' E 014°17'1 4.2
2018-Aug-05 08:55N 54°52' E 014°18'1 3.2
2018-Aug-05 08:30N 54°54' E 014°19'1 2.9
2018-Aug-05 07:59N 54°55' E 014°20'1 3.0
2018-Aug-05 07:30N 54°56' E 014°21'1 2.7
2018-Aug-05 07:00N 54°57' E 014°23'2 4.6
2018-Aug-05 06:30N 54°59' E 014°25'3 5.3
2018-Aug-05 06:00N 55°01' E 014°28'3 6.6
2018-Aug-05 05:30N 55°04' E 014°30'3 6.0
2018-Aug-05 05:00N 55°07' E 014°32'3 5.5
2018-Aug-05 04:30N 55°09' E 014°34'3 5.6
2018-Aug-05 04:00N 55°12' E 014°36'3 5.6
2018-Aug-05 03:30N 55°15' E 014°38'3 5.6
2018-Aug-05 03:00N 55°17' E 014°40'3 6.5
2018-Aug-05 02:30N 55°20' E 014°43'4 6.7
2018-Aug-05 01:58N 55°23' E 014°45'3 5.9
2018-Aug-05 01:30N 55°26' E 014°47'3 5.7
2018-Aug-05 01:00N 55°28' E 014°50'3 4.9
2018-Aug-05 00:30N 55°30' E 014°52'3 4.7
2018-Aug-04 23:56N 55°32' E 014°55'2 4.0
2018-Aug-04 23:26N 55°34' E 014°58'2 4.1
2018-Aug-04 23:00N 55°35' E 014°60'2 4.7
2018-Aug-04 22:30N 55°37' E 015°02'2 4.3
2018-Aug-04 22:00N 55°39' E 015°05'2 3.1
2018-Aug-04 21:30N 55°40' E 015°07'1 2.5
2018-Aug-04 21:00N 55°41' E 015°08'2 3.3
2018-Aug-04 20:30N 55°42' E 015°11'2 4.3
2018-Aug-04 20:00N 55°43' E 015°14'2 4.2
2018-Aug-04 19:30N 55°44' E 015°17'2 4.9
2018-Aug-04 19:00N 55°46' E 015°20'3 6.1
2018-Aug-04 18:30N 55°48' E 015°23'3 5.5
2018-Aug-04 18:00N 55°50' E 015°26'3 5.0
2018-Aug-04 17:30N 55°52' E 015°29'3 6.2
2018-Aug-04 17:00N 55°55' E 015°31'3 6.6
2018-Aug-04 16:30N 55°58' E 015°33'3 6.6
2018-Aug-04 16:00N 56°02' E 015°34'2 3.9
2018-Aug-04 15:30N 56°04' E 015°34'2 4.2
2018-Aug-04 15:00N 56°06' E 015°34'3 6.1
2018-Aug-04 14:30N 56°08' E 015°36'1 2.4
2018-Aug-04 14:00N 56°09' E 015°37'1 1.8
2018-Aug-04 13:30N 56°10' E 015°36'0 0.1
2018-Aug-04 12:59N 56°10' E 015°36'0 0.0
2018-Aug-04 12:29N 56°10' E 015°36'0 0.0
2018-Aug-04 11:59N 56°10' E 015°36'0 0.0
2018-Aug-04 11:29N 56°10' E 015°36'0 0.0
2018-Aug-04 10:59N 56°10' E 015°36'0 0.0
2018-Aug-04 10:29N 56°10' E 015°36'0 0.0
2018-Aug-04 09:59N 56°10' E 015°36'0 0.0
2018-Aug-04 09:29N 56°10' E 015°36'0 0.0
2018-Aug-04 08:59N 56°10' E 015°36'0 0.0
2018-Aug-04 08:29N 56°10' E 015°36'0 0.0
2018-Aug-04 07:59N 56°10' E 015°36'0 0.0
2018-Aug-04 07:29N 56°10' E 015°36'  
Track history (hours):
 
Tides and Currents Weather Stations Pressure Air Temp Water Temp Dewpoint Dewpoint Depression Visibility Wind Speed Wind Dir Waves Ship Positions

Roald Amundsen (Germany)

Built as a deep sea lugger in 1952. Converted and rigged as a traditional brig in 1992.

Ship's website: http://www.sailtraining.de/

Last reported at 2018-Aug-14 07:00 UTC. Time now 2018-Aug-14 07:05 UTC.
Position N 54°23' E 012°22'.

Length 50 m; beam 7.4 m; draft 4.5 m.

Type: Sailing vessel. MMSI: 211215170.

Date/timePositionNaut miles runAvg speedWind from/ knotsBaromVisibWave heightAir tempDewpointWater temp
2018-Aug-14 07:00N 54°23' E 012°22'1 0.9
2018-Aug-14 06:24N 54°22' E 012°22'0 0.0
2018-Aug-14 05:57N 54°22' E 012°22'0 0.0
2018-Aug-14 05:25N 54°22' E 012°22'0 0.0
2018-Aug-14 04:58N 54°22' E 012°22'0 0.0
2018-Aug-14 04:25N 54°22' E 012°22'0 0.0
2018-Aug-14 03:58N 54°22' E 012°22'0 0.0
2018-Aug-14 03:28N 54°22' E 012°22'0 0.0
2018-Aug-14 02:58N 54°22' E 012°22'0 0.0
2018-Aug-14 00:43N 54°22' E 012°22'0 0.0
2018-Aug-14 00:22N 54°22' E 012°22'0 0.0
2018-Aug-13 21:31N 54°22' E 012°22'0 0.0
2018-Aug-13 21:19N 54°22' E 012°22'0 0.0
2018-Aug-13 20:58N 54°22' E 012°22'0 0.0
2018-Aug-13 20:28N 54°22' E 012°22'0 0.0
2018-Aug-13 19:13N 54°22' E 012°22'0 0.6
2018-Aug-13 19:00N 54°22' E 012°22'5 6.3
2018-Aug-13 18:15N 54°20' E 012°15'2 7.5
2018-Aug-13 18:00N 54°19' E 012°13'4 7.2
2018-Aug-13 17:30N 54°17' E 012°08'4 7.0
2018-Aug-13 16:58N 54°13' E 012°05'3 6.2
2018-Aug-13 16:30N 54°10' E 012°06'2 4.8
2018-Aug-13 16:00N 54°08' E 012°06'2 3.8
2018-Aug-13 15:29N 54°06' E 012°06'0 0.0
2018-Aug-13 14:50N 54°06' E 012°06'2 0.1
2018-Aug-12 13:14N 54°08' E 012°06'1 3.2
2018-Aug-12 12:57N 54°08' E 012°06'2 3.8
2018-Aug-12 12:28N 54°10' E 012°06'2 4.7
2018-Aug-12 11:59N 54°12' E 012°05'2 4.1
2018-Aug-12 11:30N 54°14' E 012°05'2 2.7
2018-Aug-12 10:45N 54°16' E 012°04'2 3.5
2018-Aug-12 10:14N 54°15' E 012°05'1 3.1
2018-Aug-12 10:00N 54°14' E 012°05'2 3.0
2018-Aug-12 09:29N 54°12' E 012°05'2 3.5
2018-Aug-12 09:00N 54°11' E 012°06'2 4.5
2018-Aug-12 08:30N 54°09' E 012°06'2 4.7
2018-Aug-12 08:00N 54°06' E 012°06'0 0.7
2018-Aug-12 07:30N 54°06' E 012°06'0 0.0
2018-Aug-12 03:48N 54°06' E 012°06'0 0.0
2018-Aug-12 03:30N 54°06' E 012°06'0 0.0
2018-Aug-12 03:00N 54°06' E 012°06'0 0.0
2018-Aug-12 02:30N 54°06' E 012°06'0 0.0
2018-Aug-12 02:00N 54°06' E 012°06'0 0.0
2018-Aug-12 01:30N 54°06' E 012°06'0 0.0
2018-Aug-12 01:00N 54°06' E 012°06'0 0.0
2018-Aug-12 00:30N 54°06' E 012°06'0 0.0
2018-Aug-11 21:24N 54°06' E 012°06'0 0.0
2018-Aug-11 21:00N 54°06' E 012°06'0 0.0
2018-Aug-11 19:06N 54°06' E 012°06'0 0.0
2018-Aug-11 18:39N 54°06' E 012°06'0 0.0
2018-Aug-11 18:12N 54°06' E 012°06'0 0.0
2018-Aug-11 18:00N 54°06' E 012°06'1 0.2
2018-Aug-11 14:00N 54°07' E 012°06'4 3.7
2018-Aug-11 12:58N 54°11' E 012°06'3 5.9
2018-Aug-11 12:30N 54°13' E 012°04'0 0.5
2018-Aug-11 11:59N 54°13' E 012°04'2 3.4
2018-Aug-11 11:30N 54°15' E 012°03'2 4.0
2018-Aug-11 11:00N 54°16' E 012°00'1 2.1
2018-Aug-11 10:30N 54°15' E 012°01'2 2.9
2018-Aug-11 09:59N 54°14' E 012°03'2 3.0
2018-Aug-11 09:28N 54°13' E 012°05'2 4.3
2018-Aug-11 09:00N 54°11' E 012°05'2 4.7
2018-Aug-11 08:30N 54°09' E 012°06'3 5.0
2018-Aug-11 08:00N 54°06' E 012°06'1 1.1
2018-Aug-11 07:29N 54°06' E 012°06'0 0.0
2018-Aug-11 06:14N 54°06' E 012°06'0 0.0
2018-Aug-11 05:59N 54°06' E 012°06'0 0.0
2018-Aug-10 23:44N 54°06' E 012°06'0 0.0
2018-Aug-10 23:26N 54°06' E 012°06'0 0.0
2018-Aug-10 22:50N 54°06' E 012°06'0 0.0
2018-Aug-10 22:26N 54°06' E 012°06'0 0.0
2018-Aug-10 16:13N 54°06' E 012°06'0 0.7
2018-Aug-10 15:59N 54°06' E 012°07'2 3.3
2018-Aug-10 15:29N 54°07' E 012°06'2 4.3
2018-Aug-10 15:00N 54°09' E 012°06'2 4.7
2018-Aug-10 14:30N 54°12' E 012°05'2 4.5
2018-Aug-10 14:00N 54°14' E 012°05'1 1.7
2018-Aug-10 13:15N 54°15' E 012°04'1 2.1
2018-Aug-10 12:59N 54°15' E 012°04'2 3.3
2018-Aug-10 12:28N 54°13' E 012°05'3 5.7
2018-Aug-10 12:00N 54°10' E 012°06'2 4.4
2018-Aug-10 11:30N 54°08' E 012°06'2 4.1
2018-Aug-10 10:59N 54°06' E 012°06'0 0.1
2018-Aug-10 08:59N 54°06' E 012°06'0 0.0
2018-Aug-10 08:29N 54°06' E 012°06'0 0.0
2018-Aug-10 05:05N 54°06' E 012°06'0 0.0
2018-Aug-10 04:35N 54°06' E 012°06'0 0.0
2018-Aug-10 04:20N 54°06' E 012°06'0 0.0
2018-Aug-10 03:59N 54°06' E 012°06'0 0.0
2018-Aug-10 02:29N 54°06' E 012°06'0 0.0
2018-Aug-10 00:59N 54°06' E 012°06'0 0.0
2018-Aug-10 00:29N 54°06' E 012°06'0 0.0
2018-Aug-09 23:59N 54°06' E 012°06'0 0.0
2018-Aug-09 20:14N 54°06' E 012°06'0 0.0
2018-Aug-09 19:59N 54°06' E 012°06'0 0.0
2018-Aug-09 17:14N 54°06' E 012°06'0 0.0
2018-Aug-09 16:59N 54°06' E 012°06'0 0.0
2018-Aug-09 11:59N 54°06' E 012°06'0 0.0
2018-Aug-09 11:29N 54°06' E 012°06'0 0.0
2018-Aug-09 10:59N 54°06' E 012°06'0 0.0
2018-Aug-09 10:29N 54°06' E 012°06'0 0.0
2018-Aug-09 09:56N 54°06' E 012°06'0 0.0
2018-Aug-09 08:28N 54°06' E 012°06'0 0.0
2018-Aug-09 07:58N 54°06' E 012°06'0 0.0
2018-Aug-09 07:28N 54°06' E 012°06'0 0.0
2018-Aug-09 06:58N 54°06' E 012°06'0 0.0
2018-Aug-09 06:28N 54°06' E 012°06'0 0.0
2018-Aug-09 05:55N 54°06' E 012°06'0 0.0
2018-Aug-09 04:16N 54°06' E 012°06'0 0.0
2018-Aug-09 03:52N 54°06' E 012°06'0 0.0
2018-Aug-09 02:10N 54°06' E 012°06'0 0.0
2018-Aug-09 01:58N 54°06' E 012°06'0 0.0
2018-Aug-09 01:01N 54°06' E 012°06'0 0.0
2018-Aug-09 00:43N 54°06' E 012°06'0 0.0
2018-Aug-09 00:22N 54°06' E 012°06'0 0.0
2018-Aug-08 23:55N 54°06' E 012°06'0 0.0
2018-Aug-08 23:28N 54°06' E 012°06'0 0.0
2018-Aug-08 22:25N 54°06' E 012°06'0 0.0
2018-Aug-08 21:49N 54°06' E 012°06'0 0.0
2018-Aug-08 21:28N 54°06' E 012°06'0 0.0
2018-Aug-08 20:58N 54°06' E 012°06'0 0.0
2018-Aug-08 18:01N 54°06' E 012°06'0 0.0
2018-Aug-08 17:58N 54°06' E 012°06'0 0.0
2018-Aug-08 17:25N 54°06' E 012°06'0 0.0
2018-Aug-08 14:55N 54°06' E 012°06'0 0.0
2018-Aug-08 14:28N 54°06' E 012°06'0 0.4
2018-Aug-08 14:00N 54°06' E 012°07'2 4.5
2018-Aug-08 13:30N 54°08' E 012°06'3 6.6
2018-Aug-08 12:59N 54°11' E 012°05'3 2.6
2018-Aug-08 11:44N 54°12' E 011°60'0 0.0
2018-Aug-08 11:23N 54°12' E 011°60'0 0.0
2018-Aug-08 08:41N 54°12' E 011°60'0 0.0
2018-Aug-08 08:26N 54°12' E 011°60'0 0.0
2018-Aug-08 07:50N 54°12' E 011°60'1 1.8
2018-Aug-08 07:31N 54°12' E 011°59'2 4.1
2018-Aug-08 07:00N 54°11' E 011°56'2 3.1
2018-Aug-08 06:30N 54°11' E 011°53'3 4.7
2018-Aug-08 05:55N 54°10' E 011°49'1 2.7
2018-Aug-08 05:30N 54°11' E 011°50'3 5.2
2018-Aug-08 04:55N 54°13' E 011°54'2 5.4
2018-Aug-08 04:30N 54°14' E 011°58'3 5.4
2018-Aug-08 04:00N 54°14' E 012°02'3 6.1
2018-Aug-08 03:30N 54°16' E 012°07'3 5.3
2018-Aug-08 03:00N 54°18' E 012°10'3 6.0
2018-Aug-08 02:30N 54°20' E 012°14'3 6.1
2018-Aug-08 02:00N 54°22' E 012°17'3 6.5
2018-Aug-08 01:30N 54°24' E 012°21'3 6.1
2018-Aug-08 01:00N 54°27' E 012°25'3 5.9
2018-Aug-08 00:31N 54°29' E 012°28'3 6.0
2018-Aug-08 00:00N 54°30' E 012°32'3 5.9
2018-Aug-07 23:30N 54°31' E 012°37'3 6.0
2018-Aug-07 23:01N 54°32' E 012°42'3 5.8
2018-Aug-07 22:30N 54°33' E 012°47'3 5.6
2018-Aug-07 22:00N 54°34' E 012°51'2 4.8
2018-Aug-07 21:30N 54°35' E 012°55'2 4.5
2018-Aug-07 21:00N 54°36' E 012°58'2 4.9
2018-Aug-07 20:30N 54°38' E 013°02'2 4.6
2018-Aug-07 20:01N 54°39' E 013°06'3 5.0
2018-Aug-07 19:30N 54°40' E 013°10'3 6.2
2018-Aug-07 19:00N 54°41' E 013°15'3 6.3
2018-Aug-07 18:30N 54°42' E 013°20'3 6.0
2018-Aug-07 18:00N 54°42' E 013°25'3 5.6
2018-Aug-07 17:30N 54°41' E 013°29'3 5.9
2018-Aug-07 17:00N 54°39' E 013°33'3 5.2
2018-Aug-07 16:30N 54°37' E 013°36'3 5.6
2018-Aug-07 16:00N 54°36' E 013°40'3 5.5
2018-Aug-07 15:30N 54°34' E 013°43'2 4.3
2018-Aug-07 15:00N 54°31' E 013°44'1 1.4
2018-Aug-07 14:30N 54°32' E 013°43'3 5.4
2018-Aug-07 14:00N 54°34' E 013°44'3 5.0
2018-Aug-07 13:30N 54°36' E 013°47'2 4.2
2018-Aug-07 13:00N 54°37' E 013°49'2 3.7
2018-Aug-07 12:30N 54°39' E 013°52'1 2.7
2018-Aug-07 12:00N 54°38' E 013°50'1 2.9
2018-Aug-07 11:30N 54°38' E 013°47'2 3.2
2018-Aug-07 11:00N 54°37' E 013°45'2 3.7
2018-Aug-07 10:30N 54°37' E 013°42'2 4.5
2018-Aug-07 10:01N 54°36' E 013°38'2 3.4
2018-Aug-07 09:30N 54°36' E 013°35'2 3.9
2018-Aug-07 09:00N 54°37' E 013°32'2 4.4
2018-Aug-07 08:29N 54°38' E 013°28'3 4.9
2018-Aug-07 07:47N 54°38' E 013°34'5 5.6
2018-Aug-07 06:49N 54°38' E 013°43'2 6.8
2018-Aug-07 06:31N 54°38' E 013°47'3 6.6
2018-Aug-07 05:59N 54°37' E 013°53'3 6.4
2018-Aug-07 05:29N 54°36' E 013°58'3 5.5
2018-Aug-07 05:00N 54°36' E 014°03'3 4.5
2018-Aug-07 04:19N 54°35' E 014°08'2 4.6
2018-Aug-07 03:58N 54°34' E 014°10'2 3.2
2018-Aug-07 03:28N 54°33' E 014°13'5 2.6
2018-Aug-07 01:31N 54°32' E 014°21'1 3.3
2018-Aug-07 01:13N 54°31' E 014°23'2 3.9
2018-Aug-07 00:47N 54°31' E 014°26'1 3.9
2018-Aug-07 00:30N 54°31' E 014°27'2 4.2
2018-Aug-07 00:00N 54°31' E 014°31'2 3.8
2018-Aug-06 23:30N 54°30' E 014°34'2 3.6
2018-Aug-06 23:00N 54°30' E 014°37'2 3.5
2018-Aug-06 22:30N 54°30' E 014°40'2 3.2
2018-Aug-06 22:00N 54°29' E 014°43'2 3.2
2018-Aug-06 21:29N 54°29' E 014°46'1 2.4
2018-Aug-06 20:56N 54°29' E 014°48'1 1.9
2018-Aug-06 20:16N 54°29' E 014°50'0 0.5
2018-Aug-06 19:42N 54°29' E 014°51'10 1.3
2018-Aug-06 12:23N 54°38' E 014°52'2 6.1
2018-Aug-06 12:00N 54°41' E 014°53'3 6.2
2018-Aug-06 11:30N 54°44' E 014°55'3 6.5
2018-Aug-06 11:00N 54°47' E 014°57'4 7.0
2018-Aug-06 10:29N 54°50' E 014°60'3 6.9
2018-Aug-06 09:59N 54°53' E 015°02'3 5.9
2018-Aug-06 09:31N 54°55' E 015°05'4 7.4
2018-Aug-06 09:01N 54°59' E 015°07'3 5.2
2018-Aug-06 08:30N 55°01' E 015°09'3 4.7
2018-Aug-06 07:56N 55°04' E 015°10'1 0.0
2018-Aug-05 15:21N 55°04' E 015°09'1 2.6
2018-Aug-05 14:56N 55°03' E 015°10'5 5.4
2018-Aug-05 13:59N 54°58' E 015°05'4 7.2
2018-Aug-05 13:29N 54°58' E 014°59'4 7.4
2018-Aug-05 13:00N 54°57' E 014°52'4 7.3
2018-Aug-05 12:30N 54°57' E 014°46'4 7.1
2018-Aug-05 12:00N 54°56' E 014°40'4 7.1
2018-Aug-05 11:30N 54°55' E 014°34'3 6.7
2018-Aug-05 11:00N 54°55' E 014°28'4 5.8
2018-Aug-05 10:24N 54°54' E 014°22'4 3.0
2018-Aug-05 09:08N 54°52' E 014°17'1 4.2
2018-Aug-05 08:55N 54°52' E 014°18'1 3.2
2018-Aug-05 08:30N 54°54' E 014°19'1 2.9
2018-Aug-05 07:59N 54°55' E 014°20'1 3.0
2018-Aug-05 07:30N 54°56' E 014°21'1 2.7
2018-Aug-05 07:00N 54°57' E 014°23'2 4.6
2018-Aug-05 06:30N 54°59' E 014°25'3 5.3
2018-Aug-05 06:00N 55°01' E 014°28'3 6.6
2018-Aug-05 05:30N 55°04' E 014°30'3 6.0
2018-Aug-05 05:00N 55°07' E 014°32'3 5.5
2018-Aug-05 04:30N 55°09' E 014°34'3 5.6
2018-Aug-05 04:00N 55°12' E 014°36'3 5.6
2018-Aug-05 03:30N 55°15' E 014°38'3 5.6
2018-Aug-05 03:00N 55°17' E 014°40'3 6.5
2018-Aug-05 02:30N 55°20' E 014°43'4 6.7
2018-Aug-05 01:58N 55°23' E 014°45'3 5.9
2018-Aug-05 01:30N 55°26' E 014°47'3 5.7
2018-Aug-05 01:00N 55°28' E 014°50'3 4.9
2018-Aug-05 00:30N 55°30' E 014°52'3 4.7
2018-Aug-04 23:56N 55°32' E 014°55'2 4.0
2018-Aug-04 23:26N 55°34' E 014°58'2 4.1
2018-Aug-04 23:00N 55°35' E 014°60'2 4.7
2018-Aug-04 22:30N 55°37' E 015°02'2 4.3
2018-Aug-04 22:00N 55°39' E 015°05'2 3.1
2018-Aug-04 21:30N 55°40' E 015°07'1 2.5
2018-Aug-04 21:00N 55°41' E 015°08'2 3.3
2018-Aug-04 20:30N 55°42' E 015°11'2 4.3
2018-Aug-04 20:00N 55°43' E 015°14'2 4.2
2018-Aug-04 19:30N 55°44' E 015°17'2 4.9
2018-Aug-04 19:00N 55°46' E 015°20'3 6.1
2018-Aug-04 18:30N 55°48' E 015°23'3 5.5
2018-Aug-04 18:00N 55°50' E 015°26'3 5.0
2018-Aug-04 17:30N 55°52' E 015°29'3 6.2
2018-Aug-04 17:00N 55°55' E 015°31'3 6.6
2018-Aug-04 16:30N 55°58' E 015°33'3 6.6
2018-Aug-04 16:00N 56°02' E 015°34'2 3.9
2018-Aug-04 15:30N 56°04' E 015°34'2 4.2
2018-Aug-04 15:00N 56°06' E 015°34'3 6.1
2018-Aug-04 14:30N 56°08' E 015°36'1 2.4
2018-Aug-04 14:00N 56°09' E 015°37'1 1.8
2018-Aug-04 13:30N 56°10' E 015°36'0 0.1
2018-Aug-04 12:59N 56°10' E 015°36'0 0.0
2018-Aug-04 12:29N 56°10' E 015°36'0 0.0
2018-Aug-04 11:59N 56°10' E 015°36'0 0.0
2018-Aug-04 11:29N 56°10' E 015°36'0 0.0
2018-Aug-04 10:59N 56°10' E 015°36'0 0.0
2018-Aug-04 10:29N 56°10' E 015°36'0 0.0
2018-Aug-04 09:59N 56°10' E 015°36'0 0.0
2018-Aug-04 09:29N 56°10' E 015°36'0 0.0
2018-Aug-04 08:59N 56°10' E 015°36'0 0.0
2018-Aug-04 08:29N 56°10' E 015°36'0 0.0
2018-Aug-04 07:59N 56°10' E 015°36'0 0.0
2018-Aug-04 07:29N 56°10' E 015°36'  

Dump ship's entire track history